Rinely, Pennsylvania
Current Conditions -  °F | °C
As of 10:53 PM on Monday 22 Dec 2014 (Local Time) from KTHV Reporting Station
Haze Haze  
Wind Chill: 34°   Ceiling: 200
Heat Index: 34°   Visibility: 1.2mi
Dew Point: 32°   Wind: 0mph
Humidity: 92%   Direction: NA
Pressure: 30.1"   Gusts: NA
Location:  39.7708°N, 76.5918°W
Report Text: KTHV 230353Z AUTO 00000KT 1 1/4SM BR OVC002 01/00 A3010 RMK AO2 RAE0254 SLP200 P0000 T00110000
Loading
Personal Weather Stations






























Interactive Weather Map New forecast layout! Learn more

10-Day Weather Forecast

Advertisements
Track Severe Weather on mobile